sensor_id;sensor_type;location;lat;lon;timestamp;pressure;altitude;pressure_sealevel;temperature;humidity
23176;BME280;19910;42.652;23.332;2023-05-16T00:01:05;94319.63;;;13.58;99.47
23176;BME280;19910;42.652;23.332;2023-05-16T00:03:34;94322.09;;;13.63;99.28
23176;BME280;19910;42.652;23.332;2023-05-16T00:06:01;94317.34;;;13.60;98.99
23176;BME280;19910;42.652;23.332;2023-05-16T00:08:27;94309.88;;;13.57;99.30
23176;BME280;19910;42.652;23.332;2023-05-16T00:10:54;94316.56;;;13.59;99.29
23176;BME280;19910;42.652;23.332;2023-05-16T00:13:21;94313.84;;;13.59;99.38
23176;BME280;19910;42.652;23.332;2023-05-16T00:15:50;94311.19;;;13.63;99.08
23176;BME280;19910;42.652;23.332;2023-05-16T00:18:17;94304.19;;;13.62;99.17
23176;BME280;19910;42.652;23.332;2023-05-16T00:20:45;94298.75;;;13.62;99.32
23176;BME280;19910;42.652;23.332;2023-05-16T00:23:12;94301.81;;;13.60;99.35
23176;BME280;19910;42.652;23.332;2023-05-16T00:25:39;94294.00;;;13.59;99.42
23176;BME280;19910;42.652;23.332;2023-05-16T00:28:06;94307.25;;;13.60;99.21
23176;BME280;19910;42.652;23.332;2023-05-16T00:30:33;94296.81;;;13.62;98.98
23176;BME280;19910;42.652;23.332;2023-05-16T00:32:59;94303.31;;;13.58;99.38
23176;BME280;19910;42.652;23.332;2023-05-16T00:35:26;94303.31;;;13.58;99.36
23176;BME280;19910;42.652;23.332;2023-05-16T00:37:54;94297.41;;;13.56;98.92
23176;BME280;19910;42.652;23.332;2023-05-16T00:40:21;94292.75;;;13.56;99.20
23176;BME280;19910;42.652;23.332;2023-05-16T00:42:48;94292.41;;;13.58;98.83
23176;BME280;19910;42.652;23.332;2023-05-16T00:45:15;94280.81;;;13.61;98.69
23176;BME280;19910;42.652;23.332;2023-05-16T00:47:41;94277.97;;;13.73;97.24
23176;BME280;19910;42.652;23.332;2023-05-16T00:50:09;94266.31;;;13.72;97.28
23176;BME280;19910;42.652;23.332;2023-05-16T00:52:36;94265.50;;;13.72;97.38
23176;BME280;19910;42.652;23.332;2023-05-16T00:55:05;94270.53;;;13.70;97.47
23176;BME280;19910;42.652;23.332;2023-05-16T00:57:32;94265.50;;;13.72;97.18
23176;BME280;19910;42.652;23.332;2023-05-16T00:59:59;94263.22;;;13.74;97.20
23176;BME280;19910;42.652;23.332;2023-05-16T01:02:26;94257.63;;;13.67;97.37
23176;BME280;19910;42.652;23.332;2023-05-16T01:04:54;94261.06;;;13.64;97.48
23176;BME280;19910;42.652;23.332;2023-05-16T01:07:21;94260.78;;;13.69;97.45
23176;BME280;19910;42.652;23.332;2023-05-16T01:09:48;94270.81;;;13.65;97.64
23176;BME280;19910;42.652;23.332;2023-05-16T01:12:22;94263.34;;;13.62;97.72
23176;BME280;19910;42.652;23.332;2023-05-16T01:14:59;94255.19;;;13.62;97.78
23176;BME280;19910;42.652;23.332;2023-05-16T01:17:33;94255.09;;;13.58;97.90
23176;BME280;19910;42.652;23.332;2023-05-16T01:20:08;94252.03;;;13.60;97.77
23176;BME280;19910;42.652;23.332;2023-05-16T01:22:51;94251.31;;;13.63;97.41
23176;BME280;19910;42.652;23.332;2023-05-16T01:25:30;94244.31;;;13.62;97.47
23176;BME280;19910;42.652;23.332;2023-05-16T01:28:03;94249.75;;;13.62;97.28
23176;BME280;19910;42.652;23.332;2023-05-16T01:30:34;94241.84;;;13.57;98.09
23176;BME280;19910;42.652;23.332;2023-05-16T01:33:00;94236.31;;;13.53;98.42
23176;BME280;19910;42.652;23.332;2023-05-16T01:35:28;94237.84;;;13.50;98.62
23176;BME280;19910;42.652;23.332;2023-05-16T01:37:58;94237.41;;;13.48;98.55
23176;BME280;19910;42.652;23.332;2023-05-16T01:40:34;94225.03;;;13.51;98.42
23176;BME280;19910;42.652;23.332;2023-05-16T01:43:09;94212.13;;;13.48;98.33
23176;BME280;19910;42.652;23.332;2023-05-16T01:45:40;94216.78;;;13.47;98.56
23176;BME280;19910;42.652;23.332;2023-05-16T01:48:12;94211.78;;;13.49;98.46
23176;BME280;19910;42.652;23.332;2023-05-16T01:50:45;94220.63;;;13.46;98.85
23176;BME280;19910;42.652;23.332;2023-05-16T01:53:15;94217.34;;;13.37;99.23
23176;BME280;19910;42.652;23.332;2023-05-16T01:55:46;94217.16;;;13.30;100.00
23176;BME280;19910;42.652;23.332;2023-05-16T01:58:17;94212.88;;;13.29;100.00
23176;BME280;19910;42.652;23.332;2023-05-16T02:00:45;94213.22;;;13.28;100.00
23176;BME280;19910;42.652;23.332;2023-05-16T02:03:12;94218.31;;;13.29;100.00
23176;BME280;19910;42.652;23.332;2023-05-16T02:05:39;94218.66;;;13.28;100.00
23176;BME280;19910;42.652;23.332;2023-05-16T02:08:06;94213.22;;;13.28;100.00
23176;BME280;19910;42.652;23.332;2023-05-16T02:10:33;94208.13;;;13.26;100.00
23176;BME280;19910;42.652;23.332;2023-05-16T02:12:59;94206.94;;;13.24;100.00
23176;BME280;19910;42.652;23.332;2023-05-16T02:15:28;94201.50;;;13.24;100.00
23176;BME280;19910;42.652;23.332;2023-05-16T02:17:54;94199.91;;;13.23;100.00
23176;BME280;19910;42.652;23.332;2023-05-16T02:20:22;94210.00;;;13.22;100.00
23176;BME280;19910;42.652;23.332;2023-05-16T02:22:49;94204.25;;;13.27;99.91
23176;BME280;19910;42.652;23.332;2023-05-16T02:25:16;94200.84;;;13.30;99.51
23176;BME280;19910;42.652;23.332;2023-05-16T02:27:42;94193.22;;;13.36;98.88
23176;BME280;19910;42.652;23.332;2023-05-16T02:30:10;94206.03;;;13.35;98.87
23176;BME280;19910;42.652;23.332;2023-05-16T02:32:39;94190.97;;;13.41;98.39
23176;BME280;19910;42.652;23.332;2023-05-16T02:35:06;94202.31;;;13.43;98.09
23176;BME280;19910;42.652;23.332;2023-05-16T02:37:33;94208.53;;;13.44;97.94
23176;BME280;19910;42.652;23.332;2023-05-16T02:40:00;94205.72;;;13.40;97.99
23176;BME280;19910;42.652;23.332;2023-05-16T02:42:27;94204.94;;;13.40;98.12
23176;BME280;19910;42.652;23.332;2023-05-16T02:44:53;94205.81;;;13.44;97.78
23176;BME280;19910;42.652;23.332;2023-05-16T02:47:20;94211.25;;;13.44;97.61
23176;BME280;19910;42.652;23.332;2023-05-16T02:49:48;94206.47;;;13.57;96.64
23176;BME280;19910;42.652;23.332;2023-05-16T02:52:16;94195.31;;;13.62;95.91
23176;BME280;19910;42.652;23.332;2023-05-16T02:54:43;94189.16;;;13.65;95.78
23176;BME280;19910;42.652;23.332;2023-05-16T02:57:10;94200.19;;;13.72;95.35
23176;BME280;19910;42.652;23.332;2023-05-16T02:59:37;94192.59;;;13.81;94.71
23176;BME280;19910;42.652;23.332;2023-05-16T03:02:03;94189.44;;;13.79;94.42
23176;BME280;19910;42.652;23.332;2023-05-16T03:04:30;94188.72;;;13.82;94.29
23176;BME280;19910;42.652;23.332;2023-05-16T03:06:59;94186.44;;;13.84;93.91
23176;BME280;19910;42.652;23.332;2023-05-16T03:09:26;94180.00;;;13.92;93.37
23176;BME280;19910;42.652;23.332;2023-05-16T03:11:52;94185.78;;;13.91;93.61
23176;BME280;19910;42.652;23.332;2023-05-16T03:14:19;94194.31;;;13.89;93.82
23176;BME280;19910;42.652;23.332;2023-05-16T03:16:46;94190.44;;;13.90;93.73
23176;BME280;19910;42.652;23.332;2023-05-16T03:19:13;94181.69;;;13.81;93.96
23176;BME280;19910;42.652;23.332;2023-05-16T03:21:40;94185.91;;;13.98;92.96
23176;BME280;19910;42.652;23.332;2023-05-16T03:24:08;94192.22;;;14.02;92.77
23176;BME280;19910;42.652;23.332;2023-05-16T03:26:35;94186.00;;;14.01;92.75
23176;BME280;19910;42.652;23.332;2023-05-16T03:29:01;94179.69;;;13.97;92.78
23176;BME280;19910;42.652;23.332;2023-05-16T03:31:29;94191.72;;;13.96;92.84
23176;BME280;19910;42.652;23.332;2023-05-16T03:33:56;94178.09;;;13.96;93.12
23176;BME280;19910;42.652;23.332;2023-05-16T03:36:23;94186.72;;;13.98;92.96
23176;BME280;19910;42.652;23.332;2023-05-16T03:38:50;94185.13;;;13.97;93.28
23176;BME280;19910;42.652;23.332;2023-05-16T03:41:19;94166.78;;;13.94;93.18
23176;BME280;19910;42.652;23.332;2023-05-16T03:43:46;94174.53;;;13.92;93.08
23176;BME280;19910;42.652;23.332;2023-05-16T03:46:13;94177.31;;;13.96;92.96
23176;BME280;19910;42.652;23.332;2023-05-16T03:48:40;94183.72;;;14.03;92.57
23176;BME280;19910;42.652;23.332;2023-05-16T03:51:06;94187.56;;;14.02;92.24
23176;BME280;19910;42.652;23.332;2023-05-16T03:53:33;94171.22;;;14.02;92.17
23176;BME280;19910;42.652;23.332;2023-05-16T03:56:00;94167.38;;;14.03;92.43
23176;BME280;19910;42.652;23.332;2023-05-16T03:58:29;94181.09;;;14.10;92.17
23176;BME280;19910;42.652;23.332;2023-05-16T04:00:56;94173.69;;;14.07;92.02
23176;BME280;19910;42.652;23.332;2023-05-16T04:03:23;94178.38;;;14.10;91.87
23176;BME280;19910;42.652;23.332;2023-05-16T04:05:53;94172.16;;;14.10;91.72
23176;BME280;19910;42.652;23.332;2023-05-16T04:08:20;94177.59;;;14.10;91.61
23176;BME280;19910;42.652;23.332;2023-05-16T04:10:46;94181.53;;;14.12;91.70
23176;BME280;19910;42.652;23.332;2023-05-16T04:13:13;94178.38;;;14.10;91.96
23176;BME280;19910;42.652;23.332;2023-05-16T04:15:42;94184.13;;;14.05;92.43
23176;BME280;19910;42.652;23.332;2023-05-16T04:18:09;94190.00;;;14.07;92.31
23176;BME280;19910;42.652;23.332;2023-05-16T04:20:36;94186.19;;;14.12;92.09
23176;BME280;19910;42.652;23.332;2023-05-16T04:23:02;94192.16;;;14.17;91.82
23176;BME280;19910;42.652;23.332;2023-05-16T04:25:30;94191.13;;;14.26;90.98
23176;BME280;19910;42.652;23.332;2023-05-16T04:27:57;94185.03;;;14.32;90.27
23176;BME280;19910;42.652;23.332;2023-05-16T04:30:24;94174.34;;;14.43;89.29
23176;BME280;19910;42.652;23.332;2023-05-16T04:32:52;94183.00;;;14.48;89.04
23176;BME280;19910;42.652;23.332;2023-05-16T04:35:18;94164.34;;;14.50;88.70
23176;BME280;19910;42.652;23.332;2023-05-16T04:37:46;94165.56;;;14.53;88.79
23176;BME280;19910;42.652;23.332;2023-05-16T04:40:13;94180.75;;;14.54;88.74
23176;BME280;19910;42.652;23.332;2023-05-16T04:42:40;94158.97;;;14.54;88.96
23176;BME280;19910;42.652;23.332;2023-05-16T04:45:07;94155.09;;;14.55;88.66
23176;BME280;19910;42.652;23.332;2023-05-16T04:47:36;94154.97;;;14.48;89.04
23176;BME280;19910;42.652;23.332;2023-05-16T04:50:06;94160.47;;;14.51;89.01
23176;BME280;19910;42.652;23.332;2023-05-16T04:52:34;94143.31;;;14.51;88.69
23176;BME280;19910;42.652;23.332;2023-05-16T04:55:01;94164.41;;;14.54;88.56
23176;BME280;19910;42.652;23.332;2023-05-16T04:57:28;94164.13;;;14.59;88.43
23176;BME280;19910;42.652;23.332;2023-05-16T04:59:54;94156.72;;;14.60;88.33
23176;BME280;19910;42.652;23.332;2023-05-16T05:02:21;94149.69;;;14.58;88.26
23176;BME280;19910;42.652;23.332;2023-05-16T05:04:48;94164.84;;;14.56;88.35
23176;BME280;19910;42.652;23.332;2023-05-16T05:07:17;94158.22;;;14.57;88.24
23176;BME280;19910;42.652;23.332;2023-05-16T05:09:43;94155.16;;;14.58;88.23
23176;BME280;19910;42.652;23.332;2023-05-16T05:12:10;94173.88;;;14.60;87.97
23176;BME280;19910;42.652;23.332;2023-05-16T05:14:37;94170.03;;;14.65;87.65
23176;BME280;19910;42.652;23.332;2023-05-16T05:17:04;94172.41;;;14.66;87.51
23176;BME280;19910;42.652;23.332;2023-05-16T05:19:31;94171.25;;;14.67;87.41
23176;BME280;19910;42.652;23.332;2023-05-16T05:21:58;94176.28;;;14.65;87.36
23176;BME280;19910;42.652;23.332;2023-05-16T05:24:26;94178.69;;;14.70;87.11
23176;BME280;19910;42.652;23.332;2023-05-16T05:26:53;94180.34;;;14.75;86.73
23176;BME280;19910;42.652;23.332;2023-05-16T05:29:19;94176.50;;;14.79;86.66
23176;BME280;19910;42.652;23.332;2023-05-16T05:31:46;94173.41;;;14.81;86.57
23176;BME280;19910;42.652;23.332;2023-05-16T05:34:13;94157.84;;;14.81;86.28
23176;BME280;19910;42.652;23.332;2023-05-16T05:36:40;94153.91;;;14.79;86.79
23176;BME280;19910;42.652;23.332;2023-05-16T05:39:08;94155.81;;;14.75;87.18
23176;BME280;19910;42.652;23.332;2023-05-16T05:41:36;94150.38;;;14.78;86.73
23176;BME280;19910;42.652;23.332;2023-05-16T05:44:04;94159.78;;;14.81;86.66
23176;BME280;19910;42.652;23.332;2023-05-16T05:46:31;94150.50;;;14.85;86.51
23176;BME280;19910;42.652;23.332;2023-05-16T05:48:59;94158.38;;;14.90;86.27
23176;BME280;19910;42.652;23.332;2023-05-16T05:51:26;94157.63;;;14.93;86.03
23176;BME280;19910;42.652;23.332;2023-05-16T05:53:53;94177.22;;;14.99;85.59
23176;BME280;19910;42.652;23.332;2023-05-16T05:56:20;94149.47;;;14.93;85.61
23176;BME280;19910;42.652;23.332;2023-05-16T05:58:50;94148.78;;;15.00;85.68
23176;BME280;19910;42.652;23.332;2023-05-16T06:01:17;94153.13;;;15.05;84.85
23176;BME280;19910;42.652;23.332;2023-05-16T06:03:45;94143.38;;;15.04;84.83
23176;BME280;19910;42.652;23.332;2023-05-16T06:06:12;94149.69;;;15.08;84.90
23176;BME280;19910;42.652;23.332;2023-05-16T06:08:39;94156.66;;;15.05;84.92
23176;BME280;19910;42.652;23.332;2023-05-16T06:11:06;94151.16;;;15.02;85.15
23176;BME280;19910;42.652;23.332;2023-05-16T06:13:33;94146.50;;;15.02;84.96
23176;BME280;19910;42.652;23.332;2023-05-16T06:16:01;94144.91;;;15.01;85.31
23176;BME280;19910;42.652;23.332;2023-05-16T06:18:28;94155.47;;;15.03;85.27
23176;BME280;19910;42.652;23.332;2023-05-16T06:20:55;94157.34;;;14.99;85.74
23176;BME280;19910;42.652;23.332;2023-05-16T06:23:22;94155.81;;;15.01;85.61
23176;BME280;19910;42.652;23.332;2023-05-16T06:25:49;94176.09;;;15.04;85.32
23176;BME280;19910;42.652;23.332;2023-05-16T06:28:16;94164.47;;;15.07;85.31
23176;BME280;19910;42.652;23.332;2023-05-16T06:30:43;94170.47;;;15.16;84.74
23176;BME280;19910;42.652;23.332;2023-05-16T06:33:13;94151.41;;;15.19;84.71
23176;BME280;19910;42.652;23.332;2023-05-16T06:35:40;94149.47;;;15.20;84.69
23176;BME280;19910;42.652;23.332;2023-05-16T06:38:06;94140.13;;;15.21;84.28
23176;BME280;19910;42.652;23.332;2023-05-16T06:40:33;94144.47;;;15.25;84.21
23176;BME280;19910;42.652;23.332;2023-05-16T06:43:00;94146.06;;;15.26;84.13
23176;BME280;19910;42.652;23.332;2023-05-16T06:45:27;94145.28;;;15.26;84.13
23176;BME280;19910;42.652;23.332;2023-05-16T06:47:54;94140.31;;;15.35;83.58
23176;BME280;19910;42.652;23.332;2023-05-16T06:50:22;94133.69;;;15.36;83.61
23176;BME280;19910;42.652;23.332;2023-05-16T06:52:49;94137.28;;;15.40;83.20
23176;BME280;19910;42.652;23.332;2023-05-16T06:55:16;94124.41;;;15.41;83.19
23176;BME280;19910;42.652;23.332;2023-05-16T06:57:43;94126.84;;;15.49;82.50
23176;BME280;19910;42.652;23.332;2023-05-16T07:00:10;94116.72;;;15.50;82.34
23176;BME280;19910;42.652;23.332;2023-05-16T07:02:37;94133.16;;;15.53;82.18
23176;BME280;19910;42.652;23.332;2023-05-16T07:05:05;94142.72;;;15.67;81.60
23176;BME280;19910;42.652;23.332;2023-05-16T07:07:33;94130.16;;;15.62;81.95
23176;BME280;19910;42.652;23.332;2023-05-16T07:10:00;94120.03;;;15.62;82.08
23176;BME280;19910;42.652;23.332;2023-05-16T07:12:27;94112.63;;;15.63;82.46
23176;BME280;19910;42.652;23.332;2023-05-16T07:14:54;94118.50;;;15.65;82.12
23176;BME280;19910;42.652;23.332;2023-05-16T07:17:20;94113.03;;;15.65;82.47
23176;BME280;19910;42.652;23.332;2023-05-16T07:19:48;94092.72;;;15.62;82.53
23176;BME280;19910;42.652;23.332;2023-05-16T07:22:15;94094.41;;;15.71;82.22
23176;BME280;19910;42.652;23.332;2023-05-16T07:24:43;94094.41;;;15.71;82.14
23176;BME280;19910;42.652;23.332;2023-05-16T07:27:10;94090.56;;;15.79;82.17
23176;BME280;19910;42.652;23.332;2023-05-16T07:29:37;94088.25;;;15.81;82.35
23176;BME280;19910;42.652;23.332;2023-05-16T07:32:05;94096.03;;;15.79;82.10
23176;BME280;19910;42.652;23.332;2023-05-16T07:34:32;94092.19;;;15.83;82.06
23176;BME280;19910;42.652;23.332;2023-05-16T07:36:58;94097.69;;;15.87;82.06
23176;BME280;19910;42.652;23.332;2023-05-16T07:39:25;94104.38;;;15.93;81.60
23176;BME280;19910;42.652;23.332;2023-05-16T07:41:53;94123.13;;;15.94;81.35
23176;BME280;19910;42.652;23.332;2023-05-16T07:44:20;94130.19;;;15.99;81.19
23176;BME280;19910;42.652;23.332;2023-05-16T07:46:47;94114.25;;;16.05;81.46
23176;BME280;19910;42.652;23.332;2023-05-16T07:49:13;94109.59;;;16.05;80.75
23176;BME280;19910;42.652;23.332;2023-05-16T07:51:40;94115.06;;;16.05;80.34
23176;BME280;19910;42.652;23.332;2023-05-16T07:54:07;94121.31;;;16.06;80.52
23176;BME280;19910;42.652;23.332;2023-05-16T07:56:33;94103.81;;;16.14;80.58
23176;BME280;19910;42.652;23.332;2023-05-16T07:59:02;94108.56;;;16.20;79.63
23176;BME280;19910;42.652;23.332;2023-05-16T08:01:30;94108.66;;;16.31;79.81
23176;BME280;19910;42.652;23.332;2023-05-16T08:03:56;94110.63;;;16.30;79.47
23176;BME280;19910;42.652;23.332;2023-05-16T08:06:23;94097.50;;;16.47;78.85
23176;BME280;19910;42.652;23.332;2023-05-16T08:08:50;94106.16;;;16.56;78.42
23176;BME280;19910;42.652;23.332;2023-05-16T08:11:18;94099.25;;;16.69;78.31
23176;BME280;19910;42.652;23.332;2023-05-16T08:13:47;94086.75;;;16.68;78.03
23176;BME280;19910;42.652;23.332;2023-05-16T08:16:15;94088.34;;;16.73;78.01
23176;BME280;19910;42.652;23.332;2023-05-16T08:18:42;94081.84;;;16.91;77.43
23176;BME280;19910;42.652;23.332;2023-05-16T08:21:08;94086.13;;;16.89;77.81
23176;BME280;19910;42.652;23.332;2023-05-16T08:23:35;94097.03;;;16.85;77.10
23176;BME280;19910;42.652;23.332;2023-05-16T08:26:02;94084.59;;;16.91;76.87
23176;BME280;19910;42.652;23.332;2023-05-16T08:28:29;94086.97;;;17.00;77.16
23176;BME280;19910;42.652;23.332;2023-05-16T08:30:56;94095.63;;;17.05;76.56
23176;BME280;19910;42.652;23.332;2023-05-16T08:33:24;94094.16;;;17.26;75.72
23176;BME280;19910;42.652;23.332;2023-05-16T08:35:51;94085.59;;;17.31;75.83
23176;BME280;19910;42.652;23.332;2023-05-16T08:38:18;94085.59;;;17.31;75.29
23176;BME280;19910;42.652;23.332;2023-05-16T08:40:45;94086.09;;;17.54;74.68
23176;BME280;19910;42.652;23.332;2023-05-16T08:43:11;94085.81;;;17.70;73.26
23176;BME280;19910;42.652;23.332;2023-05-16T08:45:39;94078.00;;;17.79;73.11
23176;BME280;19910;42.652;23.332;2023-05-16T08:48:07;94084.75;;;18.03;71.93
23176;BME280;19910;42.652;23.332;2023-05-16T08:50:37;94072.63;;;18.15;71.64
23176;BME280;19910;42.652;23.332;2023-05-16T08:53:04;94066.38;;;18.42;70.22
23176;BME280;19910;42.652;23.332;2023-05-16T08:55:33;94068.38;;;18.67;69.87
23176;BME280;19910;42.652;23.332;2023-05-16T08:58:01;94071.50;;;18.72;69.04
23176;BME280;19910;42.652;23.332;2023-05-16T09:00:28;94073.06;;;18.98;68.49
23176;BME280;19910;42.652;23.332;2023-05-16T09:02:56;94066.75;;;19.08;67.44
23176;BME280;19910;42.652;23.332;2023-05-16T09:05:23;94070.25;;;19.27;67.15
23176;BME280;19910;42.652;23.332;2023-05-16T09:07:52;94065.56;;;19.24;67.09
23176;BME280;19910;42.652;23.332;2023-05-16T09:10:19;94074.97;;;19.15;66.50
23176;BME280;19910;42.652;23.332;2023-05-16T09:12:46;94057.75;;;19.11;67.23
23176;BME280;19910;42.652;23.332;2023-05-16T09:15:13;94053.88;;;18.77;67.29
23176;BME280;19910;42.652;23.332;2023-05-16T09:17:42;94058.53;;;18.52;68.67
23176;BME280;19910;42.652;23.332;2023-05-16T09:20:11;94075.00;;;18.27;69.28
23176;BME280;19910;42.652;23.332;2023-05-16T09:22:39;94065.59;;;18.28;69.31
23176;BME280;19910;42.652;23.332;2023-05-16T09:25:08;94062.44;;;18.36;69.55
23176;BME280;19910;42.652;23.332;2023-05-16T09:27:34;94054.22;;;18.36;70.13
23176;BME280;19910;42.652;23.332;2023-05-16T09:30:01;94066.38;;;18.28;69.90
23176;BME280;19910;42.652;23.332;2023-05-16T09:32:30;94049.91;;;18.46;69.68
23176;BME280;19910;42.652;23.332;2023-05-16T09:34:57;94048.34;;;18.38;70.55
23176;BME280;19910;42.652;23.332;2023-05-16T09:37:24;94042.09;;;18.27;70.34
23176;BME280;19910;42.652;23.332;2023-05-16T09:39:52;94062.44;;;18.26;70.83
23176;BME280;19910;42.652;23.332;2023-05-16T09:42:20;94050.31;;;18.27;71.41
23176;BME280;19910;42.652;23.332;2023-05-16T09:44:49;94038.16;;;18.35;70.23
23176;BME280;19910;42.652;23.332;2023-05-16T09:47:17;94050.69;;;18.25;70.64
23176;BME280;19910;42.652;23.332;2023-05-16T09:49:45;94051.47;;;18.33;71.21
23176;BME280;19910;42.652;23.332;2023-05-16T09:52:13;94042.88;;;18.41;70.85
23176;BME280;19910;42.652;23.332;2023-05-16T09:54:39;94044.44;;;18.35;71.35
23176;BME280;19910;42.652;23.332;2023-05-16T09:57:06;94053.84;;;18.56;70.68
23176;BME280;19910;42.652;23.332;2023-05-16T09:59:38;94048.75;;;18.58;70.39
23176;BME280;19910;42.652;23.332;2023-05-16T10:02:06;94043.69;;;18.63;70.32
23176;BME280;19910;42.652;23.332;2023-05-16T10:04:33;94051.88;;;18.88;70.09
23176;BME280;19910;42.652;23.332;2023-05-16T10:07:01;94031.53;;;18.86;68.98
23176;BME280;19910;42.652;23.332;2023-05-16T10:09:31;94048.31;;;19.20;69.14
23176;BME280;19910;42.652;23.332;2023-05-16T10:12:00;94058.50;;;19.19;68.00
23176;BME280;19910;42.652;23.332;2023-05-16T10:14:29;94042.84;;;19.12;67.94
23176;BME280;19910;42.652;23.332;2023-05-16T10:17:02;94053.03;;;19.12;68.82
23176;BME280;19910;42.652;23.332;2023-05-16T10:19:31;94062.38;;;19.29;67.76
23176;BME280;19910;42.652;23.332;2023-05-16T10:22:03;94053.72;;;19.48;67.11
23176;BME280;19910;42.652;23.332;2023-05-16T10:24:36;94061.25;;;19.26;66.99
23176;BME280;19910;42.652;23.332;2023-05-16T10:27:05;94048.34;;;19.09;68.23
23176;BME280;19910;42.652;23.332;2023-05-16T10:29:31;94052.22;;;19.18;67.97
23176;BME280;19910;42.652;23.332;2023-05-16T10:32:00;94038.13;;;19.06;67.72
23176;BME280;19910;42.652;23.332;2023-05-16T10:34:29;94038.16;;;18.95;69.10
23176;BME280;19910;42.652;23.332;2023-05-16T10:36:56;94035.41;;;18.95;69.52
23176;BME280;19910;42.652;23.332;2023-05-16T10:39:23;94033.84;;;18.91;68.96
23176;BME280;19910;42.652;23.332;2023-05-16T10:41:50;94024.81;;;18.87;69.72
23176;BME280;19910;42.652;23.332;2023-05-16T10:44:18;94017.00;;;18.85;69.53
23176;BME280;19910;42.652;23.332;2023-05-16T10:46:46;94007.50;;;19.22;68.85
23176;BME280;19910;42.652;23.332;2023-05-16T10:49:20;94003.44;;;19.65;67.16
23176;BME280;19910;42.652;23.332;2023-05-16T10:52:05;93986.72;;;19.97;65.91
23176;BME280;19910;42.652;23.332;2023-05-16T10:54:36;93983.66;;;20.47;64.67
23176;BME280;19910;42.652;23.332;2023-05-16T10:57:05;94007.03;;;20.21;64.71
23176;BME280;19910;42.652;23.332;2023-05-16T10:59:40;93999.44;;;19.73;65.79
23176;BME280;19910;42.652;23.332;2023-05-16T11:02:21;93995.59;;;19.57;66.65
23176;BME280;19910;42.652;23.332;2023-05-16T11:04:49;94006.19;;;19.65;66.39
23176;BME280;19910;42.652;23.332;2023-05-16T11:07:17;94005.81;;;19.56;66.26
23176;BME280;19910;42.652;23.332;2023-05-16T11:09:49;94014.44;;;19.58;67.08
23176;BME280;19910;42.652;23.332;2023-05-16T11:12:19;94009.38;;;19.53;67.09
23176;BME280;19910;42.652;23.332;2023-05-16T11:14:50;94011.75;;;19.37;67.33
23176;BME280;19910;42.652;23.332;2023-05-16T11:17:20;94012.94;;;19.32;67.37
23176;BME280;19910;42.652;23.332;2023-05-16T11:19:49;94016.13;;;19.20;67.50
23176;BME280;19910;42.652;23.332;2023-05-16T11:22:24;94024.75;;;19.22;67.30
23176;BME280;19910;42.652;23.332;2023-05-16T11:24:56;94023.09;;;19.42;67.06
23176;BME280;19910;42.652;23.332;2023-05-16T11:27:25;94031.66;;;19.73;66.98
23176;BME280;19910;42.652;23.332;2023-05-16T11:29:53;94029.22;;;19.85;66.37
23176;BME280;19910;42.652;23.332;2023-05-16T11:32:21;94018.06;;;20.14;65.80
23176;BME280;19910;42.652;23.332;2023-05-16T11:34:50;94034.22;;;20.05;64.98
23176;BME280;19910;42.652;23.332;2023-05-16T11:37:19;94015.75;;;20.09;65.16
23176;BME280;19910;42.652;23.332;2023-05-16T11:39:47;94029.53;;;20.02;65.02
23176;BME280;19910;42.652;23.332;2023-05-16T11:42:14;94034.78;;;19.78;65.79
23176;BME280;19910;42.652;23.332;2023-05-16T11:44:42;94033.94;;;19.88;66.16
23176;BME280;19910;42.652;23.332;2023-05-16T11:47:09;94015.56;;;19.71;66.98
23176;BME280;19910;42.652;23.332;2023-05-16T11:49:36;94007.31;;;19.71;67.01
23176;BME280;19910;42.652;23.332;2023-05-16T11:52:06;94017.44;;;19.88;66.03
23176;BME280;19910;42.652;23.332;2023-05-16T11:54:34;94012.69;;;19.93;66.18
23176;BME280;19910;42.652;23.332;2023-05-16T11:57:01;94010.88;;;20.27;65.21
23176;BME280;19910;42.652;23.332;2023-05-16T11:59:28;94008.47;;;20.40;65.36
23176;BME280;19910;42.652;23.332;2023-05-16T12:01:55;93999.69;;;20.55;64.29
23176;BME280;19910;42.652;23.332;2023-05-16T12:04:22;93997.94;;;20.76;64.04
23176;BME280;19910;42.652;23.332;2023-05-16T12:06:58;93993.13;;;20.83;63.03
23176;BME280;19910;42.652;23.332;2023-05-16T12:09:27;93986.56;;;21.11;62.86
23176;BME280;19910;42.652;23.332;2023-05-16T12:11:54;93973.69;;;21.01;62.38
23176;BME280;19910;42.652;23.332;2023-05-16T12:14:21;93985.56;;;21.62;60.85
23176;BME280;19910;42.652;23.332;2023-05-16T12:16:49;93988.72;;;21.64;61.36
23176;BME280;19910;42.652;23.332;2023-05-16T12:19:17;93992.22;;;21.69;60.19
23176;BME280;19910;42.652;23.332;2023-05-16T12:21:44;93988.72;;;21.91;60.65
23176;BME280;19910;42.652;23.332;2023-05-16T12:24:11;93972.53;;;22.47;58.22
23176;BME280;19910;42.652;23.332;2023-05-16T12:26:40;93971.56;;;22.34;58.75
23176;BME280;19910;42.652;23.332;2023-05-16T12:29:09;93961.63;;;22.63;58.25
23176;BME280;19910;42.652;23.332;2023-05-16T12:31:38;93960.53;;;23.04;57.64
23176;BME280;19910;42.652;23.332;2023-05-16T12:34:14;93977.72;;;22.92;57.81
23176;BME280;19910;42.652;23.332;2023-05-16T12:36:42;93966.06;;;22.34;58.72
23176;BME280;19910;42.652;23.332;2023-05-16T12:39:11;93980.84;;;21.93;59.81
23176;BME280;19910;42.652;23.332;2023-05-16T12:41:41;93986.13;;;21.50;60.43
23176;BME280;19910;42.652;23.332;2023-05-16T12:44:12;93990.44;;;21.17;61.93
23176;BME280;19910;42.652;23.332;2023-05-16T12:46:45;93978.69;;;21.10;62.54
23176;BME280;19910;42.652;23.332;2023-05-16T12:49:13;93979.47;;;21.10;62.23
23176;BME280;19910;42.652;23.332;2023-05-16T12:51:46;93978.81;;;20.99;62.94
23176;BME280;19910;42.652;23.332;2023-05-16T12:54:13;93986.06;;;20.82;62.37